sensor_id;sensor_type;location;lat;lon;timestamp;temperature;humidity
5578;DHT22;2811;51.900;10.734;2023-04-12T00:00:52;3.80;99.90
5578;DHT22;2811;51.900;10.734;2023-04-12T00:03:19;3.80;99.90
5578;DHT22;2811;51.900;10.734;2023-04-12T00:05:48;3.90;99.90
5578;DHT22;2811;51.900;10.734;2023-04-12T00:08:19;4.00;99.90
5578;DHT22;2811;51.900;10.734;2023-04-12T00:10:49;4.00;99.90
5578;DHT22;2811;51.900;10.734;2023-04-12T00:13:16;4.00;99.90
5578;DHT22;2811;51.900;10.734;2023-04-12T00:15:43;3.80;99.90
5578;DHT22;2811;51.900;10.734;2023-04-12T00:18:09;3.90;99.90
5578;DHT22;2811;51.900;10.734;2023-04-12T00:20:36;3.90;99.90
5578;DHT22;2811;51.900;10.734;2023-04-12T00:23:04;3.70;99.90
5578;DHT22;2811;51.900;10.734;2023-04-12T00:25:31;3.70;99.90
5578;DHT22;2811;51.900;10.734;2023-04-12T00:27:58;3.60;99.90
5578;DHT22;2811;51.900;10.734;2023-04-12T00:30:25;3.60;99.90
5578;DHT22;2811;51.900;10.734;2023-04-12T00:32:52;3.50;99.90
5578;DHT22;2811;51.900;10.734;2023-04-12T00:35:19;3.50;99.90
5578;DHT22;2811;51.900;10.734;2023-04-12T00:37:46;3.50;99.90
5578;DHT22;2811;51.900;10.734;2023-04-12T00:40:14;3.60;99.90
5578;DHT22;2811;51.900;10.734;2023-04-12T00:42:41;3.60;99.90
5578;DHT22;2811;51.900;10.734;2023-04-12T00:45:08;3.70;99.90
5578;DHT22;2811;51.900;10.734;2023-04-12T00:47:36;3.90;99.90
5578;DHT22;2811;51.900;10.734;2023-04-12T00:50:04;3.80;99.90
5578;DHT22;2811;51.900;10.734;2023-04-12T00:52:31;3.70;99.90
5578;DHT22;2811;51.900;10.734;2023-04-12T00:55:00;3.70;99.90
5578;DHT22;2811;51.900;10.734;2023-04-12T00:57:30;3.80;99.90
5578;DHT22;2811;51.900;10.734;2023-04-12T00:59:59;3.90;99.90
5578;DHT22;2811;51.900;10.734;2023-04-12T01:02:26;4.00;99.90
5578;DHT22;2811;51.900;10.734;2023-04-12T01:04:55;4.30;99.90
5578;DHT22;2811;51.900;10.734;2023-04-12T01:07:41;4.50;99.90
5578;DHT22;2811;51.900;10.734;2023-04-12T01:10:17;4.60;99.90
5578;DHT22;2811;51.900;10.734;2023-04-12T01:12:52;4.60;99.90
5578;DHT22;2811;51.900;10.734;2023-04-12T01:15:22;4.50;99.90
5578;DHT22;2811;51.900;10.734;2023-04-12T01:17:55;4.50;99.90
5578;DHT22;2811;51.900;10.734;2023-04-12T01:20:28;4.60;99.90
5578;DHT22;2811;51.900;10.734;2023-04-12T01:23:11;4.90;99.90
5578;DHT22;2811;51.900;10.734;2023-04-12T01:25:50;4.80;99.90
5578;DHT22;2811;51.900;10.734;2023-04-12T01:28:22;4.90;99.90
5578;DHT22;2811;51.900;10.734;2023-04-12T01:30:49;5.10;99.90
5578;DHT22;2811;51.900;10.734;2023-04-12T01:33:17;5.20;99.90
5578;DHT22;2811;51.900;10.734;2023-04-12T01:35:44;5.20;99.90
5578;DHT22;2811;51.900;10.734;2023-04-12T01:38:12;5.20;99.90
5578;DHT22;2811;51.900;10.734;2023-04-12T01:40:39;5.30;99.90
5578;DHT22;2811;51.900;10.734;2023-04-12T01:43:08;5.30;99.90
5578;DHT22;2811;51.900;10.734;2023-04-12T01:45:36;5.40;99.90
5578;DHT22;2811;51.900;10.734;2023-04-12T01:48:04;5.40;99.90
5578;DHT22;2811;51.900;10.734;2023-04-12T01:50:38;5.50;99.90
5578;DHT22;2811;51.900;10.734;2023-04-12T01:53:10;5.80;99.90
5578;DHT22;2811;51.900;10.734;2023-04-12T01:55:39;5.90;99.90
5578;DHT22;2811;51.900;10.734;2023-04-12T01:58:08;6.00;99.90
5578;DHT22;2811;51.900;10.734;2023-04-12T02:00:39;6.00;99.90
5578;DHT22;2811;51.900;10.734;2023-04-12T02:03:08;5.90;99.90
5578;DHT22;2811;51.900;10.734;2023-04-12T02:05:37;5.60;99.90
5578;DHT22;2811;51.900;10.734;2023-04-12T02:08:04;5.50;99.90
5578;DHT22;2811;51.900;10.734;2023-04-12T02:10:32;5.50;99.90
5578;DHT22;2811;51.900;10.734;2023-04-12T02:13:01;5.40;99.90
5578;DHT22;2811;51.900;10.734;2023-04-12T02:15:28;5.40;99.90
5578;DHT22;2811;51.900;10.734;2023-04-12T02:17:56;5.50;99.90
5578;DHT22;2811;51.900;10.734;2023-04-12T02:20:24;5.50;99.90
5578;DHT22;2811;51.900;10.734;2023-04-12T02:22:51;5.40;99.90
5578;DHT22;2811;51.900;10.734;2023-04-12T02:25:18;5.40;99.90
5578;DHT22;2811;51.900;10.734;2023-04-12T02:27:45;5.50;99.90
5578;DHT22;2811;51.900;10.734;2023-04-12T02:30:13;5.60;99.90
5578;DHT22;2811;51.900;10.734;2023-04-12T02:32:40;5.70;99.90
5578;DHT22;2811;51.900;10.734;2023-04-12T02:35:11;5.60;99.90
5578;DHT22;2811;51.900;10.734;2023-04-12T02:37:38;5.50;99.90
5578;DHT22;2811;51.900;10.734;2023-04-12T02:40:07;5.50;99.90
5578;DHT22;2811;51.900;10.734;2023-04-12T02:42:35;5.30;99.90
5578;DHT22;2811;51.900;10.734;2023-04-12T02:45:02;5.50;99.90
5578;DHT22;2811;51.900;10.734;2023-04-12T02:47:29;5.90;99.90
5578;DHT22;2811;51.900;10.734;2023-04-12T02:49:56;6.10;99.90
5578;DHT22;2811;51.900;10.734;2023-04-12T02:52:24;6.10;99.90
5578;DHT22;2811;51.900;10.734;2023-04-12T02:54:54;6.20;99.90
5578;DHT22;2811;51.900;10.734;2023-04-12T02:57:20;6.20;99.90
5578;DHT22;2811;51.900;10.734;2023-04-12T02:59:49;6.20;99.90
5578;DHT22;2811;51.900;10.734;2023-04-12T03:02:17;6.20;99.90
5578;DHT22;2811;51.900;10.734;2023-04-12T03:04:44;6.20;99.90
5578;DHT22;2811;51.900;10.734;2023-04-12T03:07:11;6.20;99.90
5578;DHT22;2811;51.900;10.734;2023-04-12T03:09:39;6.20;99.90
5578;DHT22;2811;51.900;10.734;2023-04-12T03:12:07;6.20;99.90
5578;DHT22;2811;51.900;10.734;2023-04-12T03:14:34;6.10;99.90
5578;DHT22;2811;51.900;10.734;2023-04-12T03:17:00;6.10;99.90
5578;DHT22;2811;51.900;10.734;2023-04-12T03:19:27;6.00;99.90
5578;DHT22;2811;51.900;10.734;2023-04-12T03:21:57;6.00;99.90
5578;DHT22;2811;51.900;10.734;2023-04-12T03:24:24;6.00;99.90
5578;DHT22;2811;51.900;10.734;2023-04-12T03:26:52;6.10;99.90
5578;DHT22;2811;51.900;10.734;2023-04-12T03:29:19;6.10;99.90
5578;DHT22;2811;51.900;10.734;2023-04-12T03:31:46;6.00;99.90
5578;DHT22;2811;51.900;10.734;2023-04-12T03:34:13;6.00;99.90
5578;DHT22;2811;51.900;10.734;2023-04-12T03:36:39;6.00;99.90
5578;DHT22;2811;51.900;10.734;2023-04-12T03:39:06;6.00;99.90
5578;DHT22;2811;51.900;10.734;2023-04-12T03:41:33;6.00;99.90
5578;DHT22;2811;51.900;10.734;2023-04-12T03:44:02;6.10;99.90
5578;DHT22;2811;51.900;10.734;2023-04-12T03:46:29;6.60;99.90
5578;DHT22;2811;51.900;10.734;2023-04-12T03:48:56;6.20;99.90
5578;DHT22;2811;51.900;10.734;2023-04-12T03:51:23;6.20;99.90
5578;DHT22;2811;51.900;10.734;2023-04-12T03:53:51;6.20;99.90
5578;DHT22;2811;51.900;10.734;2023-04-12T03:56:18;6.10;99.90
5578;DHT22;2811;51.900;10.734;2023-04-12T03:58:45;6.10;99.90
5578;DHT22;2811;51.900;10.734;2023-04-12T04:01:14;6.10;99.90
5578;DHT22;2811;51.900;10.734;2023-04-12T04:03:42;6.10;99.90
5578;DHT22;2811;51.900;10.734;2023-04-12T04:06:09;6.30;99.90
5578;DHT22;2811;51.900;10.734;2023-04-12T04:08:36;6.30;99.90
5578;DHT22;2811;51.900;10.734;2023-04-12T04:11:04;6.40;99.90
5578;DHT22;2811;51.900;10.734;2023-04-12T04:13:31;6.50;99.90
5578;DHT22;2811;51.900;10.734;2023-04-12T04:16:01;6.60;99.90
5578;DHT22;2811;51.900;10.734;2023-04-12T04:18:29;6.60;99.90
5578;DHT22;2811;51.900;10.734;2023-04-12T04:20:56;6.70;99.90
5578;DHT22;2811;51.900;10.734;2023-04-12T04:23:23;6.70;99.90
5578;DHT22;2811;51.900;10.734;2023-04-12T04:25:50;6.60;99.90
5578;DHT22;2811;51.900;10.734;2023-04-12T04:28:18;6.70;99.90
5578;DHT22;2811;51.900;10.734;2023-04-12T04:30:45;6.70;99.90
5578;DHT22;2811;51.900;10.734;2023-04-12T04:33:12;6.60;99.90
5578;DHT22;2811;51.900;10.734;2023-04-12T04:35:41;6.50;99.90
5578;DHT22;2811;51.900;10.734;2023-04-12T04:38:08;6.30;99.90
5578;DHT22;2811;51.900;10.734;2023-04-12T04:40:36;6.20;99.90
5578;DHT22;2811;51.900;10.734;2023-04-12T04:43:02;6.30;99.90
5578;DHT22;2811;51.900;10.734;2023-04-12T04:45:29;6.40;99.90
5578;DHT22;2811;51.900;10.734;2023-04-12T04:47:57;6.60;99.90
5578;DHT22;2811;51.900;10.734;2023-04-12T04:50:24;6.70;99.90
5578;DHT22;2811;51.900;10.734;2023-04-12T04:52:53;6.70;99.90
5578;DHT22;2811;51.900;10.734;2023-04-12T04:55:20;6.60;99.90
5578;DHT22;2811;51.900;10.734;2023-04-12T04:57:49;6.70;99.90
5578;DHT22;2811;51.900;10.734;2023-04-12T05:00:16;6.60;99.90
5578;DHT22;2811;51.900;10.734;2023-04-12T05:02:43;6.70;99.90
5578;DHT22;2811;51.900;10.734;2023-04-12T05:05:10;6.70;99.90
5578;DHT22;2811;51.900;10.734;2023-04-12T05:07:37;6.60;99.90
5578;DHT22;2811;51.900;10.734;2023-04-12T05:10:07;6.90;99.90
5578;DHT22;2811;51.900;10.734;2023-04-12T05:12:34;6.60;99.90
5578;DHT22;2811;51.900;10.734;2023-04-12T05:15:02;6.50;99.90
5578;DHT22;2811;51.900;10.734;2023-04-12T05:17:29;6.40;99.90
5578;DHT22;2811;51.900;10.734;2023-04-12T05:19:56;6.30;99.90
5578;DHT22;2811;51.900;10.734;2023-04-12T05:22:22;6.40;99.90
5578;DHT22;2811;51.900;10.734;2023-04-12T05:24:50;6.60;99.90
5578;DHT22;2811;51.900;10.734;2023-04-12T05:27:18;6.50;99.90
5578;DHT22;2811;51.900;10.734;2023-04-12T05:29:44;6.40;99.90
5578;DHT22;2811;51.900;10.734;2023-04-12T05:32:11;6.20;99.90
5578;DHT22;2811;51.900;10.734;2023-04-12T05:34:38;6.10;99.90
5578;DHT22;2811;51.900;10.734;2023-04-12T05:37:05;6.10;99.90
5578;DHT22;2811;51.900;10.734;2023-04-12T05:39:32;6.40;99.90
5578;DHT22;2811;51.900;10.734;2023-04-12T05:41:59;6.50;99.90
5578;DHT22;2811;51.900;10.734;2023-04-12T05:44:27;6.90;99.90
5578;DHT22;2811;51.900;10.734;2023-04-12T05:46:54;7.50;99.90
5578;DHT22;2811;51.900;10.734;2023-04-12T05:49:21;7.90;99.90
5578;DHT22;2811;51.900;10.734;2023-04-12T05:51:47;8.20;99.90
5578;DHT22;2811;51.900;10.734;2023-04-12T05:54:14;8.40;99.90
5578;DHT22;2811;51.900;10.734;2023-04-12T05:56:45;8.50;99.90
5578;DHT22;2811;51.900;10.734;2023-04-12T05:59:12;8.60;99.90
5578;DHT22;2811;51.900;10.734;2023-04-12T06:01:40;8.70;99.90
5578;DHT22;2811;51.900;10.734;2023-04-12T06:04:09;8.80;99.90
5578;DHT22;2811;51.900;10.734;2023-04-12T06:06:35;8.90;99.90
5578;DHT22;2811;51.900;10.734;2023-04-12T06:09:02;9.00;99.90
5578;DHT22;2811;51.900;10.734;2023-04-12T06:11:29;9.10;99.90
5578;DHT22;2811;51.900;10.734;2023-04-12T06:13:58;9.10;99.90
5578;DHT22;2811;51.900;10.734;2023-04-12T06:16:24;9.20;99.90
5578;DHT22;2811;51.900;10.734;2023-04-12T06:18:52;9.10;99.90
5578;DHT22;2811;51.900;10.734;2023-04-12T06:21:19;9.00;99.90
5578;DHT22;2811;51.900;10.734;2023-04-12T06:23:46;8.90;99.90
5578;DHT22;2811;51.900;10.734;2023-04-12T06:26:12;8.90;99.90
5578;DHT22;2811;51.900;10.734;2023-04-12T06:28:39;8.90;99.90
5578;DHT22;2811;51.900;10.734;2023-04-12T06:31:06;9.00;99.90
5578;DHT22;2811;51.900;10.734;2023-04-12T06:33:32;8.90;99.90
5578;DHT22;2811;51.900;10.734;2023-04-12T06:36:02;8.80;99.90
5578;DHT22;2811;51.900;10.734;2023-04-12T06:38:29;8.80;99.90
5578;DHT22;2811;51.900;10.734;2023-04-12T06:40:56;8.90;99.90
5578;DHT22;2811;51.900;10.734;2023-04-12T06:43:22;8.90;99.90
5578;DHT22;2811;51.900;10.734;2023-04-12T06:45:49;9.00;99.90
5578;DHT22;2811;51.900;10.734;2023-04-12T06:48:16;9.10;99.90
5578;DHT22;2811;51.900;10.734;2023-04-12T06:50:43;9.10;99.90
5578;DHT22;2811;51.900;10.734;2023-04-12T06:53:12;9.40;99.90
5578;DHT22;2811;51.900;10.734;2023-04-12T06:55:39;9.60;99.90
5578;DHT22;2811;51.900;10.734;2023-04-12T06:58:05;9.60;99.90
5578;DHT22;2811;51.900;10.734;2023-04-12T07:00:32;9.80;99.90
5578;DHT22;2811;51.900;10.734;2023-04-12T07:02:59;9.90;99.90
5578;DHT22;2811;51.900;10.734;2023-04-12T07:05:25;10.10;99.90
5578;DHT22;2811;51.900;10.734;2023-04-12T07:07:52;10.30;99.90
5578;DHT22;2811;51.900;10.734;2023-04-12T07:10:20;10.50;99.90
5578;DHT22;2811;51.900;10.734;2023-04-12T07:12:47;10.50;99.90
5578;DHT22;2811;51.900;10.734;2023-04-12T07:15:14;10.50;99.90
5578;DHT22;2811;51.900;10.734;2023-04-12T07:17:40;10.60;99.90
5578;DHT22;2811;51.900;10.734;2023-04-12T07:20:08;10.70;99.90
5578;DHT22;2811;51.900;10.734;2023-04-12T07:22:34;10.70;99.90
5578;DHT22;2811;51.900;10.734;2023-04-12T07:25:01;10.90;99.90
5578;DHT22;2811;51.900;10.734;2023-04-12T07:27:30;11.10;99.90
5578;DHT22;2811;51.900;10.734;2023-04-12T07:29:57;11.30;99.90
5578;DHT22;2811;51.900;10.734;2023-04-12T07:32:24;11.50;99.90
5578;DHT22;2811;51.900;10.734;2023-04-12T07:34:51;11.70;99.90
5578;DHT22;2811;51.900;10.734;2023-04-12T07:37:18;11.60;99.90
5578;DHT22;2811;51.900;10.734;2023-04-12T07:39:45;11.60;99.90
5578;DHT22;2811;51.900;10.734;2023-04-12T07:42:11;11.70;99.90
5578;DHT22;2811;51.900;10.734;2023-04-12T07:44:39;11.90;99.90
5578;DHT22;2811;51.900;10.734;2023-04-12T07:47:06;12.10;99.90
5578;DHT22;2811;51.900;10.734;2023-04-12T07:49:32;12.00;99.90
5578;DHT22;2811;51.900;10.734;2023-04-12T07:51:59;11.70;99.90
5578;DHT22;2811;51.900;10.734;2023-04-12T07:54:26;11.70;99.90
5578;DHT22;2811;51.900;10.734;2023-04-12T07:56:57;11.80;99.90
5578;DHT22;2811;51.900;10.734;2023-04-12T07:59:24;11.60;99.90
5578;DHT22;2811;51.900;10.734;2023-04-12T08:01:52;11.60;99.90
5578;DHT22;2811;51.900;10.734;2023-04-12T08:04:19;11.50;99.90
5578;DHT22;2811;51.900;10.734;2023-04-12T08:06:46;11.40;99.90
5578;DHT22;2811;51.900;10.734;2023-04-12T08:09:12;11.30;99.90
5578;DHT22;2811;51.900;10.734;2023-04-12T08:11:39;11.50;99.90
5578;DHT22;2811;51.900;10.734;2023-04-12T08:14:06;11.60;99.90
5578;DHT22;2811;51.900;10.734;2023-04-12T08:16:32;11.60;99.90
5578;DHT22;2811;51.900;10.734;2023-04-12T08:19:00;11.50;99.90
5578;DHT22;2811;51.900;10.734;2023-04-12T08:21:27;11.50;99.90
5578;DHT22;2811;51.900;10.734;2023-04-12T08:23:54;11.60;99.90
5578;DHT22;2811;51.900;10.734;2023-04-12T08:26:21;11.70;99.90
5578;DHT22;2811;51.900;10.734;2023-04-12T08:28:47;11.70;99.90
5578;DHT22;2811;51.900;10.734;2023-04-12T08:31:14;11.70;99.90
5578;DHT22;2811;51.900;10.734;2023-04-12T08:33:41;11.50;99.90
5578;DHT22;2811;51.900;10.734;2023-04-12T08:36:09;11.50;99.90
5578;DHT22;2811;51.900;10.734;2023-04-12T08:38:36;11.40;99.90
5578;DHT22;2811;51.900;10.734;2023-04-12T08:41:03;11.30;99.90
5578;DHT22;2811;51.900;10.734;2023-04-12T08:43:32;11.50;99.90
5578;DHT22;2811;51.900;10.734;2023-04-12T08:45:59;11.50;99.90
5578;DHT22;2811;51.900;10.734;2023-04-12T08:48:27;11.60;99.90
5578;DHT22;2811;51.900;10.734;2023-04-12T08:50:55;11.50;99.90
5578;DHT22;2811;51.900;10.734;2023-04-12T08:53:23;11.60;99.90
5578;DHT22;2811;51.900;10.734;2023-04-12T08:55:51;11.40;99.90
5578;DHT22;2811;51.900;10.734;2023-04-12T08:58:18;11.30;99.90
5578;DHT22;2811;51.900;10.734;2023-04-12T09:00:46;11.20;99.90
5578;DHT22;2811;51.900;10.734;2023-04-12T09:03:13;11.00;99.90
5578;DHT22;2811;51.900;10.734;2023-04-12T09:05:40;11.00;99.90
5578;DHT22;2811;51.900;10.734;2023-04-12T09:08:07;11.10;99.90
5578;DHT22;2811;51.900;10.734;2023-04-12T09:10:36;11.00;99.90
5578;DHT22;2811;51.900;10.734;2023-04-12T09:13:04;11.00;99.90
5578;DHT22;2811;51.900;10.734;2023-04-12T09:15:32;11.00;99.90
5578;DHT22;2811;51.900;10.734;2023-04-12T09:18:04;11.00;99.90
5578;DHT22;2811;51.900;10.734;2023-04-12T09:20:31;10.80;99.90
5578;DHT22;2811;51.900;10.734;2023-04-12T09:22:58;10.90;99.90
5578;DHT22;2811;51.900;10.734;2023-04-12T09:25:37;11.00;99.90
5578;DHT22;2811;51.900;10.734;2023-04-12T09:28:16;10.90;99.90
5578;DHT22;2811;51.900;10.734;2023-04-12T09:30:44;10.90;99.90
5578;DHT22;2811;51.900;10.734;2023-04-12T09:33:16;10.90;99.90
5578;DHT22;2811;51.900;10.734;2023-04-12T09:35:43;10.90;99.90
5578;DHT22;2811;51.900;10.734;2023-04-12T09:38:10;10.90;99.90
5578;DHT22;2811;51.900;10.734;2023-04-12T09:40:38;10.90;99.90
5578;DHT22;2811;51.900;10.734;2023-04-12T09:43:06;10.80;99.90
5578;DHT22;2811;51.900;10.734;2023-04-12T09:45:33;10.70;99.90
5578;DHT22;2811;51.900;10.734;2023-04-12T09:48:02;10.70;99.90
5578;DHT22;2811;51.900;10.734;2023-04-12T09:50:30;10.70;99.90
5578;DHT22;2811;51.900;10.734;2023-04-12T09:52:59;10.70;99.90
5578;DHT22;2811;51.900;10.734;2023-04-12T09:55:27;10.70;99.90
5578;DHT22;2811;51.900;10.734;2023-04-12T09:57:55;10.70;99.90
5578;DHT22;2811;51.900;10.734;2023-04-12T10:00:23;10.60;99.90
5578;DHT22;2811;51.900;10.734;2023-04-12T10:02:53;10.40;99.90
5578;DHT22;2811;51.900;10.734;2023-04-12T10:05:21;10.40;99.90
5578;DHT22;2811;51.900;10.734;2023-04-12T10:07:50;10.50;99.90
5578;DHT22;2811;51.900;10.734;2023-04-12T10:10:18;10.40;99.90
5578;DHT22;2811;51.900;10.734;2023-04-12T10:12:47;10.40;99.90
5578;DHT22;2811;51.900;10.734;2023-04-12T10:15:16;10.30;99.90
5578;DHT22;2811;51.900;10.734;2023-04-12T10:17:43;10.30;99.90
5578;DHT22;2811;51.900;10.734;2023-04-12T10:20:11;10.20;99.90
5578;DHT22;2811;51.900;10.734;2023-04-12T10:22:39;10.20;99.90
5578;DHT22;2811;51.900;10.734;2023-04-12T10:25:09;10.10;99.90
5578;DHT22;2811;51.900;10.734;2023-04-12T10:27:39;9.90;99.90
5578;DHT22;2811;51.900;10.734;2023-04-12T10:30:24;9.70;99.90
5578;DHT22;2811;51.900;10.734;2023-04-12T10:33:10;9.70;99.90
5578;DHT22;2811;51.900;10.734;2023-04-12T10:35:49;9.60;99.90
5578;DHT22;2811;51.900;10.734;2023-04-12T10:38:16;9.60;99.90
5578;DHT22;2811;51.900;10.734;2023-04-12T10:41:09;9.60;99.90
5578;DHT22;2811;51.900;10.734;2023-04-12T10:43:36;9.50;99.90
5578;DHT22;2811;51.900;10.734;2023-04-12T10:46:05;9.50;99.90
5578;DHT22;2811;51.900;10.734;2023-04-12T10:48:32;9.60;99.90
5578;DHT22;2811;51.900;10.734;2023-04-12T10:51:16;9.60;99.90
5578;DHT22;2811;51.900;10.734;2023-04-12T10:53:47;9.60;99.90
5578;DHT22;2811;51.900;10.734;2023-04-12T10:56:33;9.50;99.90
5578;DHT22;2811;51.900;10.734;2023-04-12T10:59:01;9.50;99.90
5578;DHT22;2811;51.900;10.734;2023-04-12T11:01:30;9.60;99.90
5578;DHT22;2811;51.900;10.734;2023-04-12T11:04:11;9.60;99.90
5578;DHT22;2811;51.900;10.734;2023-04-12T11:06:55;9.60;99.90
5578;DHT22;2811;51.900;10.734;2023-04-12T11:09:24;9.60;99.90
5578;DHT22;2811;51.900;10.734;2023-04-12T11:11:55;9.60;99.90
5578;DHT22;2811;51.900;10.734;2023-04-12T11:14:27;9.60;99.90
5578;DHT22;2811;51.900;10.734;2023-04-12T11:17:24;9.50;99.90
5578;DHT22;2811;51.900;10.734;2023-04-12T11:19:55;9.50;99.90
5578;DHT22;2811;51.900;10.734;2023-04-12T11:22:25;9.50;99.90
5578;DHT22;2811;51.900;10.734;2023-04-12T11:24:54;9.40;99.90
5578;DHT22;2811;51.900;10.734;2023-04-12T11:27:22;9.50;99.90
5578;DHT22;2811;51.900;10.734;2023-04-12T11:29:52;9.60;99.90
5578;DHT22;2811;51.900;10.734;2023-04-12T11:32:20;9.60;99.90
5578;DHT22;2811;51.900;10.734;2023-04-12T11:34:49;9.60;99.90
5578;DHT22;2811;51.900;10.734;2023-04-12T11:37:18;9.60;99.90
5578;DHT22;2811;51.900;10.734;2023-04-12T11:39:45;9.60;99.90
5578;DHT22;2811;51.900;10.734;2023-04-12T11:42:13;9.60;99.90
5578;DHT22;2811;51.900;10.734;2023-04-12T11:44:41;9.60;99.90
5578;DHT22;2811;51.900;10.734;2023-04-12T11:47:15;9.80;99.90
5578;DHT22;2811;51.900;10.734;2023-04-12T11:49:43;9.90;99.90
5578;DHT22;2811;51.900;10.734;2023-04-12T11:52:14;9.80;99.90
5578;DHT22;2811;51.900;10.734;2023-04-12T11:54:42;9.80;99.90
5578;DHT22;2811;51.900;10.734;2023-04-12T11:57:14;9.80;99.90
5578;DHT22;2811;51.900;10.734;2023-04-12T11:59:46;9.60;99.90
5578;DHT22;2811;51.900;10.734;2023-04-12T12:02:13;9.70;99.90
5578;DHT22;2811;51.900;10.734;2023-04-12T12:04:42;9.70;99.90
5578;DHT22;2811;51.900;10.734;2023-04-12T12:07:12;9.70;99.90
5578;DHT22;2811;51.900;10.734;2023-04-12T12:09:39;9.80;99.90
5578;DHT22;2811;51.900;10.734;2023-04-12T12:12:09;9.90;99.90
5578;DHT22;2811;51.900;10.734;2023-04-12T12:14:36;9.80;99.90
5578;DHT22;2811;51.900;10.734;2023-04-12T12:17:09;9.80;99.90
5578;DHT22;2811;51.900;10.734;2023-04-12T12:19:37;9.90;99.90
5578;DHT22;2811;51.900;10.734;2023-04-12T12:22:11;9.90;99.90
5578;DHT22;2811;51.900;10.734;2023-04-12T12:24:38;10.00;99.90
5578;DHT22;2811;51.900;10.734;2023-04-12T12:27:10;10.10;99.90
5578;DHT22;2811;51.900;10.734;2023-04-12T12:29:37;10.00;99.90
5578;DHT22;2811;51.900;10.734;2023-04-12T12:32:10;10.20;99.90
5578;DHT22;2811;51.900;10.734;2023-04-12T12:34:38;10.40;99.90
5578;DHT22;2811;51.900;10.734;2023-04-12T12:37:13;10.50;99.90
5578;DHT22;2811;51.900;10.734;2023-04-12T12:40:02;10.30;99.90
5578;DHT22;2811;51.900;10.734;2023-04-12T12:42:36;10.20;99.90
5578;DHT22;2811;51.900;10.734;2023-04-12T12:45:04;10.40;99.90
5578;DHT22;2811;51.900;10.734;2023-04-12T12:47:31;10.60;99.90
5578;DHT22;2811;51.900;10.734;2023-04-12T12:49:58;10.70;99.90
5578;DHT22;2811;51.900;10.734;2023-04-12T12:52:26;10.80;99.90
5578;DHT22;2811;51.900;10.734;2023-04-12T12:54:52;10.80;99.90
5578;DHT22;2811;51.900;10.734;2023-04-12T12:57:19;10.90;99.90
5578;DHT22;2811;51.900;10.734;2023-04-12T12:59:45;11.10;99.90
5578;DHT22;2811;51.900;10.734;2023-04-12T13:02:12;11.10;99.90
5578;DHT22;2811;51.900;10.734;2023-04-12T13:04:39;11.10;99.90
5578;DHT22;2811;51.900;10.734;2023-04-12T13:07:06;11.20;99.90
5578;DHT22;2811;51.900;10.734;2023-04-12T13:09:34;11.00;99.90
5578;DHT22;2811;51.900;10.734;2023-04-12T13:12:01;11.00;99.90
5578;DHT22;2811;51.900;10.734;2023-04-12T13:14:27;11.10;99.90
5578;DHT22;2811;51.900;10.734;2023-04-12T13:16:54;11.20;99.90
5578;DHT22;2811;51.900;10.734;2023-04-12T13:19:21;11.20;99.90
5578;DHT22;2811;51.900;10.734;2023-04-12T13:21:48;11.00;99.90
5578;DHT22;2811;51.900;10.734;2023-04-12T13:24:15;11.00;99.90
5578;DHT22;2811;51.900;10.734;2023-04-12T13:26:42;11.10;99.90
5578;DHT22;2811;51.900;10.734;2023-04-12T13:29:09;11.10;99.90
5578;DHT22;2811;51.900;10.734;2023-04-12T13:31:36;11.10;99.90
5578;DHT22;2811;51.900;10.734;2023-04-12T13:34:02;11.10;99.90
5578;DHT22;2811;51.900;10.734;2023-04-12T13:36:29;11.00;99.90
5578;DHT22;2811;51.900;10.734;2023-04-12T13:38:56;11.10;99.90
5578;DHT22;2811;51.900;10.734;2023-04-12T13:41:22;11.10;99.90
5578;DHT22;2811;51.900;10.734;2023-04-12T13:43:50;11.10;99.90
5578;DHT22;2811;51.900;10.734;2023-04-12T13:46:17;11.00;99.90
5578;DHT22;2811;51.900;10.734;2023-04-12T13:48:44;11.00;99.90
5578;DHT22;2811;51.900;10.734;2023-04-12T13:51:10;11.10;99.90
5578;DHT22;2811;51.900;10.734;2023-04-12T13:53:37;11.30;99.90
5578;DHT22;2811;51.900;10.734;2023-04-12T13:56:04;11.40;99.90
5578;DHT22;2811;51.900;10.734;2023-04-12T13:58:31;11.50;99.90
5578;DHT22;2811;51.900;10.734;2023-04-12T14:00:59;11.60;99.90
5578;DHT22;2811;51.900;10.734;2023-04-12T14:03:25;11.50;99.90
5578;DHT22;2811;51.900;10.734;2023-04-12T14:05:52;11.50;99.90
5578;DHT22;2811;51.900;10.734;2023-04-12T14:08:19;11.50;99.90
5578;DHT22;2811;51.900;10.734;2023-04-12T14:10:45;11.50;99.90
5578;DHT22;2811;51.900;10.734;2023-04-12T14:13:12;11.60;99.90
5578;DHT22;2811;51.900;10.734;2023-04-12T14:15:38;11.60;99.90
5578;DHT22;2811;51.900;10.734;2023-04-12T14:18:06;11.70;99.90
5578;DHT22;2811;51.900;10.734;2023-04-12T14:20:33;11.60;99.90
5578;DHT22;2811;51.900;10.734;2023-04-12T14:23:00;11.50;99.90
5578;DHT22;2811;51.900;10.734;2023-04-12T14:25:27;11.30;99.90
5578;DHT22;2811;51.900;10.734;2023-04-12T14:27:53;11.30;99.90
5578;DHT22;2811;51.900;10.734;2023-04-12T14:30:20;11.40;99.90
5578;DHT22;2811;51.900;10.734;2023-04-12T14:32:47;11.30;99.90
5578;DHT22;2811;51.900;10.734;2023-04-12T14:35:15;11.50;99.90
5578;DHT22;2811;51.900;10.734;2023-04-12T14:37:42;11.50;99.90
5578;DHT22;2811;51.900;10.734;2023-04-12T14:40:09;11.60;99.90
5578;DHT22;2811;51.900;10.734;2023-04-12T14:42:36;11.70;99.90
5578;DHT22;2811;51.900;10.734;2023-04-12T14:45:03;11.70;99.90
5578;DHT22;2811;51.900;10.734;2023-04-12T14:47:32;11.90;99.90
5578;DHT22;2811;51.900;10.734;2023-04-12T14:50:00;12.20;99.90
5578;DHT22;2811;51.900;10.734;2023-04-12T14:52:28;12.30;99.90
5578;DHT22;2811;51.900;10.734;2023-04-12T14:54:55;12.40;99.90
5578;DHT22;2811;51.900;10.734;2023-04-12T14:57:21;12.50;99.90
5578;DHT22;2811;51.900;10.734;2023-04-12T14:59:49;12.40;99.90
5578;DHT22;2811;51.900;10.734;2023-04-12T15:02:16;12.40;99.90
5578;DHT22;2811;51.900;10.734;2023-04-12T15:04:46;12.10;99.90
5578;DHT22;2811;51.900;10.734;2023-04-12T15:07:12;12.20;99.90
5578;DHT22;2811;51.900;10.734;2023-04-12T15:09:40;12.20;99.90
5578;DHT22;2811;51.900;10.734;2023-04-12T15:12:08;12.20;99.90
5578;DHT22;2811;51.900;10.734;2023-04-12T15:14:35;12.30;99.90
5578;DHT22;2811;51.900;10.734;2023-04-12T15:17:02;12.30;99.90
5578;DHT22;2811;51.900;10.734;2023-04-12T15:19:30;12.50;99.90
5578;DHT22;2811;51.900;10.734;2023-04-12T15:21:56;12.30;99.90
5578;DHT22;2811;51.900;10.734;2023-04-12T15:24:24;12.30;99.90
5578;DHT22;2811;51.900;10.734;2023-04-12T15:26:52;12.20;99.90
5578;DHT22;2811;51.900;10.734;2023-04-12T15:29:19;12.30;99.90
5578;DHT22;2811;51.900;10.734;2023-04-12T15:31:46;12.40;99.90
5578;DHT22;2811;51.900;10.734;2023-04-12T15:34:13;12.50;99.90
5578;DHT22;2811;51.900;10.734;2023-04-12T15:36:40;12.50;99.90
5578;DHT22;2811;51.900;10.734;2023-04-12T15:39:08;12.50;99.90
5578;DHT22;2811;51.900;10.734;2023-04-12T15:41:36;12.50;99.90
5578;DHT22;2811;51.900;10.734;2023-04-12T15:44:06;12.60;99.90
5578;DHT22;2811;51.900;10.734;2023-04-12T15:46:33;12.40;99.90
5578;DHT22;2811;51.900;10.734;2023-04-12T15:49:00;12.50;99.90
5578;DHT22;2811;51.900;10.734;2023-04-12T15:51:27;12.10;99.90
5578;DHT22;2811;51.900;10.734;2023-04-12T15:53:54;12.20;99.90
5578;DHT22;2811;51.900;10.734;2023-04-12T15:56:21;12.10;99.90
5578;DHT22;2811;51.900;10.734;2023-04-12T15:58:49;12.40;99.90
5578;DHT22;2811;51.900;10.734;2023-04-12T16:01:18;12.80;99.90